createdAt,value
2018-11-03T00:02:20.844Z,6.60
2018-11-03T00:04:16.127Z,10.00
2018-11-03T00:05:53.310Z,10.00
2018-11-03T00:07:35.048Z,7.80
2018-11-03T00:09:13.419Z,9.20
2018-11-03T00:10:55.289Z,7.60
2018-11-03T00:12:36.315Z,9.80
2018-11-03T00:14:18.437Z,9.60
2018-11-03T00:16:03.397Z,13.00
2018-11-03T00:17:54.531Z,12.00
2018-11-03T00:19:38.863Z,6.80
2018-11-03T00:21:32.156Z,9.20
2018-11-03T00:23:29.987Z,7.40
2018-11-03T00:25:19.758Z,4.80
2018-11-03T00:27:17.263Z,8.00
2018-11-03T00:29:05.431Z,17.20
2018-11-03T00:32:50.491Z,10.00
2018-11-03T00:35:03.248Z,9.20
2018-11-03T00:38:44.275Z,12.60
2018-11-03T00:40:26.158Z,10.80
2018-11-03T00:44:18.767Z,16.60
2018-11-03T00:45:55.339Z,21.20
2018-11-03T00:47:30.588Z,19.40
2018-11-03T00:51:08.158Z,20.60
2018-11-03T00:53:02.586Z,9.00
2018-11-03T00:54:43.480Z,19.80
2018-11-03T00:56:27.659Z,12.60
2018-11-03T00:59:52.081Z,12.60
2018-11-03T01:01:32.579Z,15.20
2018-11-03T01:03:15.537Z,14.20
2018-11-03T01:04:51.553Z,9.20
2018-11-03T01:06:27.511Z,13.40
2018-11-03T01:10:32.519Z,26.60
2018-11-03T01:12:21.813Z,18.60
2018-11-03T01:14:08.537Z,15.60
2018-11-03T01:15:58.520Z,14.40
2018-11-03T01:17:41.888Z,13.20
2018-11-03T01:19:19.084Z,7.80
2018-11-03T01:20:59.254Z,13.40
2018-11-03T01:22:39.060Z,12.80
2018-11-03T01:24:17.960Z,10.80
2018-11-03T01:25:54.701Z,14.60
2018-11-03T01:27:30.866Z,12.80
2018-11-03T01:29:07.380Z,11.20
2018-11-03T01:30:48.584Z,12.40
2018-11-03T01:32:23.760Z,11.00
2018-11-03T01:35:59.910Z,10.80
2018-11-03T01:37:47.617Z,12.60
2018-11-03T01:39:33.069Z,7.20
2018-11-03T01:41:13.350Z,8.20
2018-11-03T01:42:50.433Z,10.80
2018-11-03T01:44:28.205Z,7.20
2018-11-03T01:46:11.622Z,9.00
2018-11-03T01:47:48.816Z,10.60
2018-11-03T01:49:34.626Z,4.80
2018-11-03T01:51:14.864Z,7.80
2018-11-03T01:52:50.404Z,8.00
2018-11-03T01:54:25.997Z,9.60
2018-11-03T01:56:05.483Z,9.00
2018-11-03T01:57:47.620Z,5.20
2018-11-03T01:59:26.615Z,1.00
2018-11-03T02:01:02.701Z,8.80
2018-11-03T02:02:42.824Z,3.60
2018-11-03T02:04:23.974Z,7.00
2018-11-03T02:05:59.313Z,7.80
2018-11-03T02:07:36.493Z,3.40
2018-11-03T02:09:12.922Z,9.80
2018-11-03T02:10:50.228Z,6.00
2018-11-03T02:12:37.466Z,7.00
2018-11-03T02:14:14.219Z,4.80
2018-11-03T02:15:53.223Z,9.40
2018-11-03T02:17:29.771Z,3.00
2018-11-03T02:19:07.969Z,9.00
2018-11-03T02:20:45.864Z,9.80
2018-11-03T02:22:23.860Z,8.60
2018-11-03T02:24:00.786Z,6.80
2018-11-03T02:25:37.747Z,8.40
2018-11-03T02:27:14.985Z,9.40
2018-11-03T02:28:51.410Z,6.00
2018-11-03T02:30:27.152Z,9.20
2018-11-03T02:32:02.845Z,9.60
2018-11-03T02:33:42.206Z,8.60
2018-11-03T02:35:20.412Z,9.20
2018-11-03T02:36:57.847Z,5.40
2018-11-03T02:38:33.170Z,5.20
2018-11-03T02:40:11.339Z,6.60
2018-11-03T02:41:46.711Z,7.00
2018-11-03T02:43:22.443Z,8.20
2018-11-03T02:44:57.818Z,6.00
2018-11-03T02:46:33.381Z,5.20
2018-11-03T02:48:09.452Z,7.80
2018-11-03T02:49:45.032Z,7.40
2018-11-03T02:51:23.274Z,4.00
2018-11-03T02:53:00.270Z,5.20
2018-11-03T02:54:43.344Z,4.40
2018-11-03T02:56:21.533Z,7.00
2018-11-03T02:58:00.062Z,1.00
2018-11-03T02:59:45.742Z,9.00
2018-11-03T03:01:29.784Z,5.60
2018-11-03T03:03:06.244Z,6.40
2018-11-03T03:04:47.537Z,5.80
2018-11-03T03:06:29.821Z,7.20
2018-11-03T03:08:10.249Z,3.00
2018-11-03T03:09:49.036Z,12.00
2018-11-03T03:11:36.117Z,10.40
2018-11-03T03:13:18.393Z,9.40
2018-11-03T03:14:59.311Z,9.40
2018-11-03T03:16:45.397Z,9.20
2018-11-03T03:18:27.108Z,11.20
2018-11-03T03:20:07.818Z,10.40
2018-11-03T03:21:51.749Z,8.60
2018-11-03T03:23:27.318Z,9.00
2018-11-03T03:25:23.373Z,9.20
2018-11-03T03:27:06.414Z,10.00
2018-11-03T03:28:44.098Z,8.20
2018-11-03T03:30:23.985Z,11.60
2018-11-03T03:32:05.710Z,8.00
2018-11-03T03:33:44.250Z,8.20
2018-11-03T03:35:20.858Z,9.20
2018-11-03T03:37:01.448Z,10.40
2018-11-03T03:38:43.342Z,9.20
2018-11-03T03:40:19.748Z,10.60
2018-11-03T03:41:57.911Z,12.60
2018-11-03T03:43:32.970Z,6.20
2018-11-03T03:45:12.535Z,7.60
2018-11-03T03:46:49.147Z,10.80
2018-11-03T03:48:26.263Z,9.80
2018-11-03T03:50:05.598Z,6.40
2018-11-03T03:51:40.798Z,4.40
2018-11-03T03:53:16.950Z,7.60
2018-11-03T03:54:54.027Z,8.20
2018-11-03T03:56:29.515Z,6.00
2018-11-03T03:58:05.090Z,9.00
2018-11-03T03:59:40.360Z,9.00
2018-11-03T04:01:16.081Z,10.40
2018-11-03T04:02:51.269Z,9.00
2018-11-03T04:04:29.267Z,2.20
2018-11-03T04:06:07.876Z,4.00
2018-11-03T04:07:42.975Z,6.00
2018-11-03T04:09:25.643Z,8.40
2018-11-03T04:11:01.342Z,4.40
2018-11-03T04:12:37.304Z,6.00
2018-11-03T04:14:12.839Z,8.60
2018-11-03T04:15:50.145Z,9.00
2018-11-03T04:17:27.146Z,6.80
2018-11-03T04:19:04.074Z,3.00
2018-11-03T04:20:41.454Z,7.00
2018-11-03T04:22:18.593Z,7.00
2018-11-03T04:23:53.819Z,6.40
2018-11-03T04:25:31.957Z,10.00
2018-11-03T04:27:07.583Z,4.40
2018-11-03T04:28:43.555Z,7.20
2018-11-03T04:30:19.265Z,5.20
2018-11-03T04:31:54.478Z,3.60
2018-11-03T04:33:30.491Z,6.60
2018-11-03T04:35:06.844Z,8.20
2018-11-03T04:36:47.273Z,9.00
2018-11-03T04:38:22.161Z,9.20
2018-11-03T04:40:02.607Z,7.60
2018-11-03T04:41:40.286Z,7.80
2018-11-03T04:43:16.358Z,5.20
2018-11-03T04:44:51.593Z,7.80
2018-11-03T04:46:27.579Z,7.40
2018-11-03T04:48:09.405Z,8.80
2018-11-03T04:49:45.162Z,3.40
2018-11-03T04:51:21.746Z,7.00
2018-11-03T04:52:57.827Z,9.00
2018-11-03T04:54:34.438Z,6.40
2018-11-03T04:56:09.902Z,5.80
2018-11-03T04:57:47.530Z,1.80
2018-11-03T04:59:23.285Z,7.40
2018-11-03T05:00:58.778Z,8.60
2018-11-03T05:02:34.794Z,9.00
2018-11-03T05:04:10.321Z,8.20
2018-11-03T05:05:45.604Z,8.20
2018-11-03T05:07:20.807Z,9.00
2018-11-03T05:08:58.785Z,6.80
2018-11-03T05:10:34.844Z,7.40
2018-11-03T05:12:11.776Z,5.20
2018-11-03T05:13:47.115Z,9.40
2018-11-03T05:15:22.339Z,5.20
2018-11-03T05:16:57.323Z,7.80
2018-11-03T05:18:33.823Z,10.20
2018-11-03T05:20:09.065Z,9.20
2018-11-03T05:21:45.334Z,7.00
2018-11-03T05:23:22.546Z,8.20
2018-11-03T05:24:59.294Z,11.60
2018-11-03T05:26:44.687Z,9.80
2018-11-03T05:28:20.455Z,8.60
2018-11-03T05:29:57.542Z,6.20
2018-11-03T05:31:32.855Z,6.00
2018-11-03T05:33:07.885Z,9.60
2018-11-03T05:34:44.002Z,8.60
2018-11-03T05:36:18.972Z,4.40
2018-11-03T05:37:56.288Z,9.40
2018-11-03T05:39:33.752Z,11.40
2018-11-03T05:41:13.935Z,3.80
2018-11-03T05:42:56.229Z,6.80
2018-11-03T05:44:35.113Z,5.80
2018-11-03T05:46:10.407Z,7.00
2018-11-03T05:47:47.547Z,8.00
2018-11-03T05:49:23.069Z,4.00
2018-11-03T05:50:58.245Z,9.20
2018-11-03T05:52:53.296Z,8.60
2018-11-03T05:54:45.495Z,4.40
2018-11-03T05:56:20.849Z,2.60
2018-11-03T05:57:57.051Z,6.40
2018-11-03T05:59:32.778Z,5.60
2018-11-03T06:01:09.374Z,6.80
2018-11-03T06:02:44.742Z,6.60
2018-11-03T06:04:20.323Z,1.00
2018-11-03T06:05:56.852Z,7.60
2018-11-03T06:07:32.533Z,8.80
2018-11-03T06:09:15.577Z,6.80
2018-11-03T06:10:57.250Z,7.00
2018-11-03T06:12:41.538Z,7.60
2018-11-03T06:14:17.045Z,10.40
2018-11-03T06:15:56.584Z,3.80
2018-11-03T06:17:31.869Z,1.80
2018-11-03T06:19:10.735Z,9.20
2018-11-03T06:20:46.054Z,6.40
2018-11-03T06:22:22.072Z,3.00
2018-11-03T06:24:02.643Z,6.80
2018-11-03T06:25:37.795Z,7.00
2018-11-03T06:29:21.946Z,7.00
2018-11-03T06:31:02.490Z,7.00
2018-11-03T06:32:39.207Z,7.40
2018-11-03T06:34:23.555Z,3.00
2018-11-03T06:35:59.915Z,7.80
2018-11-03T06:37:37.599Z,6.20
2018-11-03T06:39:24.922Z,3.80
2018-11-03T06:41:04.649Z,3.00
2018-11-03T06:42:42.166Z,3.20
2018-11-03T06:44:22.774Z,4.80
2018-11-03T06:46:04.220Z,3.00
2018-11-03T06:47:44.842Z,4.00
2018-11-03T06:49:26.977Z,5.80
2018-11-03T06:52:49.467Z,1.40
2018-11-03T06:54:25.187Z,3.80
2018-11-03T06:56:01.578Z,3.40
2018-11-03T06:57:36.966Z,3.00
2018-11-03T06:59:17.373Z,4.00
2018-11-03T07:01:12.230Z,3.00
2018-11-03T07:02:47.964Z,5.20
2018-11-03T07:04:40.648Z,4.40
2018-11-03T07:06:17.927Z,6.40
2018-11-03T07:07:57.968Z,6.80
2018-11-03T07:09:34.527Z,6.60
2018-11-03T07:11:11.290Z,3.60
2018-11-03T07:12:50.785Z,4.40
2018-11-03T07:14:29.380Z,4.40
2018-11-03T07:16:04.825Z,6.00
2018-11-03T07:17:42.856Z,6.00
2018-11-03T07:19:24.729Z,3.60
2018-11-03T07:21:00.928Z,3.80
2018-11-03T07:22:36.907Z,6.60
2018-11-03T07:24:13.033Z,6.00
2018-11-03T07:25:50.890Z,9.20
2018-11-03T07:27:26.682Z,8.80
2018-11-03T07:29:07.845Z,8.60
2018-11-03T07:30:43.079Z,7.00
2018-11-03T07:32:22.344Z,10.40
2018-11-03T07:33:58.585Z,9.20
2018-11-03T07:35:42.560Z,6.60
2018-11-03T07:37:18.749Z,8.40
2018-11-03T07:38:53.799Z,4.40
2018-11-03T07:40:32.763Z,6.20
2018-11-03T07:42:08.491Z,6.20
2018-11-03T07:43:43.524Z,9.40
2018-11-03T07:45:26.318Z,9.80
2018-11-03T07:47:03.281Z,10.00
2018-11-03T07:48:45.386Z,9.60
2018-11-03T07:50:24.383Z,3.60
2018-11-03T07:52:04.535Z,7.40
2018-11-03T07:53:40.127Z,9.20
2018-11-03T07:55:15.652Z,9.60
2018-11-03T07:56:51.497Z,8.40
2018-11-03T07:58:28.914Z,11.60
2018-11-03T08:00:10.630Z,11.20
2018-11-03T08:01:47.968Z,9.60
2018-11-03T08:03:24.016Z,6.00
2018-11-03T08:05:00.254Z,5.80
2018-11-03T08:06:36.660Z,10.80
2018-11-03T08:08:13.062Z,7.40
2018-11-03T08:09:50.356Z,10.00
2018-11-03T08:11:28.799Z,9.00
2018-11-03T08:13:08.000Z,11.20
2018-11-03T08:14:56.730Z,10.00
2018-11-03T08:16:32.444Z,13.60
2018-11-03T08:18:12.391Z,10.00
2018-11-03T08:19:52.614Z,12.00
2018-11-03T08:21:29.683Z,9.40
2018-11-03T08:23:05.396Z,16.00
2018-11-03T08:24:43.225Z,13.80
2018-11-03T08:26:18.813Z,13.00
2018-11-03T08:27:55.098Z,12.20
2018-11-03T08:29:31.235Z,15.20
2018-11-03T08:31:06.472Z,16.80
2018-11-03T08:32:45.242Z,15.80
2018-11-03T08:34:24.125Z,13.00
2018-11-03T08:35:59.630Z,12.00
2018-11-03T08:37:35.715Z,16.60
2018-11-03T08:39:45.609Z,15.80
2018-11-03T08:41:28.654Z,10.40
2018-11-03T08:43:05.564Z,12.00
2018-11-03T08:44:42.278Z,15.00
2018-11-03T08:46:20.719Z,13.00
2018-11-03T08:47:58.287Z,9.20
2018-11-03T08:49:36.275Z,9.00
2018-11-03T08:51:18.062Z,9.00
2018-11-03T08:52:57.984Z,12.40
2018-11-03T08:54:38.293Z,12.20
2018-11-03T08:56:19.985Z,12.00
2018-11-03T08:58:05.305Z,11.20
2018-11-03T09:03:57.624Z,10.00
2018-11-03T09:05:34.545Z,11.20
2018-11-03T09:07:15.959Z,13.40
2018-11-03T09:09:09.666Z,9.40
2018-11-03T09:10:46.512Z,12.00
2018-11-03T09:12:28.886Z,15.00
2018-11-03T09:14:06.291Z,7.00
2018-11-03T09:15:46.058Z,9.00
2018-11-03T09:17:22.514Z,9.00
2018-11-03T09:19:05.495Z,4.00
2018-11-03T09:20:40.984Z,10.40
2018-11-03T09:22:32.671Z,7.00
2018-11-03T09:24:10.372Z,11.20
2018-11-03T09:25:56.688Z,9.00
2018-11-03T09:27:33.263Z,9.40
2018-11-03T09:29:10.312Z,11.20
2018-11-03T09:31:02.314Z,4.60
2018-11-03T09:32:39.692Z,11.60
2018-11-03T09:34:17.150Z,11.60
2018-11-03T09:35:56.688Z,12.80
2018-11-03T09:37:33.242Z,10.80
2018-11-03T09:39:14.517Z,12.00
2018-11-03T09:40:54.998Z,12.40
2018-11-03T09:42:31.546Z,11.20
2018-11-03T09:44:09.246Z,10.00
2018-11-03T09:45:46.914Z,13.00
2018-11-03T09:47:26.632Z,11.20
2018-11-03T09:49:14.164Z,12.20
2018-11-03T09:50:53.371Z,12.80
2018-11-03T09:52:28.618Z,12.80
2018-11-03T09:54:04.228Z,11.20
2018-11-03T09:55:42.277Z,9.00
2018-11-03T09:57:22.312Z,10.80
2018-11-03T09:58:58.539Z,9.00
2018-11-03T10:00:39.054Z,10.00
2018-11-03T10:02:18.623Z,9.40
2018-11-03T10:03:55.196Z,9.80
2018-11-03T10:05:30.790Z,9.20
2018-11-03T10:07:06.779Z,7.00
2018-11-03T10:08:44.113Z,10.00
2018-11-03T10:10:25.689Z,6.80
2018-11-03T10:12:03.068Z,9.60
2018-11-03T10:13:39.219Z,6.00
2018-11-03T10:15:27.169Z,6.00
2018-11-03T10:17:09.005Z,9.20
2018-11-03T10:19:00.846Z,6.00
2018-11-03T10:20:37.222Z,6.20
2018-11-03T10:22:14.087Z,9.00
2018-11-03T10:25:35.407Z,6.60
2018-11-03T10:27:30.338Z,6.00
2018-11-03T10:29:12.671Z,8.60
2018-11-03T10:30:55.289Z,4.00
2018-11-03T10:32:36.976Z,4.00
2018-11-03T10:34:25.811Z,6.00
2018-11-03T10:36:07.553Z,3.60
2018-11-03T10:37:46.270Z,1.40
2018-11-03T10:39:30.449Z,3.00
2018-11-03T10:41:07.247Z,3.40
2018-11-03T10:44:42.406Z,6.00
2018-11-03T10:46:24.757Z,3.80
2018-11-03T10:48:05.264Z,6.00
2018-11-03T10:49:44.162Z,4.00
2018-11-03T10:51:22.615Z,1.00
2018-11-03T10:53:01.916Z,2.20
2018-11-03T10:54:42.678Z,3.00
2018-11-03T10:56:18.553Z,5.20
2018-11-03T10:58:01.642Z,3.20
2018-11-03T10:59:42.720Z,4.00
2018-11-03T11:01:24.940Z,3.80
2018-11-03T11:03:10.316Z,4.00
2018-11-03T11:04:54.392Z,3.00
2018-11-03T11:06:36.200Z,3.60
2018-11-03T11:08:21.343Z,1.80
2018-11-03T11:10:02.465Z,0.00
2018-11-03T11:11:54.703Z,1.00
2018-11-03T11:13:35.756Z,1.00
2018-11-03T11:15:15.843Z,0.00
2018-11-03T11:16:53.077Z,0.60
2018-11-03T11:18:35.042Z,1.00
2018-11-03T11:20:12.738Z,0.00
2018-11-03T11:21:51.742Z,0.60
2018-11-03T11:23:31.535Z,1.00
2018-11-03T11:25:15.501Z,0.00
2018-11-03T11:26:52.006Z,0.00
2018-11-03T11:28:34.511Z,0.00
2018-11-03T11:30:14.905Z,0.00
2018-11-03T11:31:51.572Z,0.00
2018-11-03T11:33:30.904Z,0.00
2018-11-03T11:35:10.380Z,0.00
2018-11-03T11:36:48.252Z,0.00
2018-11-03T11:38:25.338Z,1.00
2018-11-03T11:40:01.095Z,2.20
2018-11-03T11:41:40.089Z,4.00
2018-11-03T11:43:22.129Z,3.00
2018-11-03T11:44:58.774Z,0.00
2018-11-03T11:46:44.507Z,0.80
2018-11-03T11:48:28.131Z,0.00
2018-11-03T11:50:08.766Z,0.00
2018-11-03T11:51:46.880Z,0.00
2018-11-03T11:53:23.602Z,0.20
2018-11-03T11:55:04.573Z,0.40
2018-11-03T11:56:42.797Z,1.00
2018-11-03T11:58:27.877Z,3.00
2018-11-03T12:00:14.815Z,0.80
2018-11-03T12:01:56.580Z,1.00
2018-11-03T12:03:43.000Z,1.00
2018-11-03T12:05:29.673Z,1.00
2018-11-03T12:07:11.564Z,1.00
2018-11-03T12:08:52.008Z,0.00
2018-11-03T12:12:33.674Z,1.00
2018-11-03T12:14:25.224Z,1.00
2018-11-03T12:16:14.141Z,0.00
2018-11-03T12:18:02.418Z,0.80
2018-11-03T12:21:33.753Z,3.80
2018-11-03T12:23:15.909Z,4.00
2018-11-03T12:24:54.513Z,6.00
2018-11-03T12:26:38.541Z,3.80
2018-11-03T12:28:21.372Z,2.40
2018-11-03T12:29:59.344Z,16.20
2018-11-03T12:31:43.453Z,12.00
2018-11-03T12:33:23.778Z,4.20
2018-11-03T12:35:10.647Z,7.40
2018-11-03T12:36:50.317Z,4.00
2018-11-03T12:38:28.726Z,1.00
2018-11-03T12:40:25.104Z,3.60
2018-11-03T12:42:06.143Z,1.80
2018-11-03T12:43:44.801Z,3.40
2018-11-03T12:45:36.249Z,21.80
2018-11-03T12:47:29.278Z,5.00
2018-11-03T12:49:07.648Z,6.20
2018-11-03T12:52:43.277Z,10.00
2018-11-03T12:54:23.672Z,9.00
2018-11-03T12:56:01.380Z,5.20
2018-11-03T12:57:39.707Z,6.00
2018-11-03T12:59:19.344Z,2.60
2018-11-03T13:00:57.479Z,10.20
2018-11-03T13:02:41.287Z,10.60
2018-11-03T13:04:34.151Z,9.00
2018-11-03T13:06:18.834Z,9.00
2018-11-03T13:11:33.429Z,6.80
2018-11-03T13:13:11.361Z,7.80
2018-11-03T13:14:59.064Z,21.60
2018-11-03T13:16:47.658Z,22.40
2018-11-03T13:18:27.311Z,45.80
2018-11-03T13:20:10.628Z,45.80
2018-11-03T13:21:48.365Z,36.00
2018-11-03T13:23:25.222Z,16.40
2018-11-03T13:25:09.490Z,17.00
2018-11-03T13:26:46.531Z,3.00
2018-11-03T13:28:25.494Z,3.20
2018-11-03T13:30:02.900Z,9.00
2018-11-03T13:31:40.616Z,5.20
2018-11-03T13:35:05.556Z,1.80
2018-11-03T13:36:44.040Z,3.40
2018-11-03T13:38:21.164Z,9.00
2018-11-03T13:39:57.840Z,5.60
2018-11-03T13:41:35.061Z,3.60
2018-11-03T13:43:28.939Z,3.00
2018-11-03T13:45:06.350Z,3.60
2018-11-03T13:46:45.141Z,2.60
2018-11-03T13:48:25.414Z,0.00
2018-11-03T13:50:06.994Z,3.00
2018-11-03T13:51:42.936Z,4.00
2018-11-03T13:53:18.715Z,3.40
2018-11-03T13:54:55.022Z,3.40
2018-11-03T13:56:30.735Z,6.40
2018-11-03T13:58:09.565Z,3.00
2018-11-03T13:59:46.363Z,5.20
2018-11-03T14:01:22.752Z,4.00
2018-11-03T14:02:59.044Z,3.00
2018-11-03T14:04:35.814Z,4.00
2018-11-03T14:06:11.384Z,7.80
2018-11-03T14:07:49.263Z,5.20
2018-11-03T14:09:27.693Z,4.00
2018-11-03T14:11:06.395Z,4.80
2018-11-03T14:12:43.226Z,3.00
2018-11-03T14:14:19.343Z,4.40
2018-11-03T14:15:54.857Z,7.00
2018-11-03T14:17:32.589Z,9.60
2018-11-03T14:19:10.820Z,15.40
2018-11-03T14:20:47.824Z,10.80
2018-11-03T14:22:26.547Z,33.60
2018-11-03T14:24:05.210Z,21.40
2018-11-03T14:25:42.139Z,11.20
2018-11-03T14:27:18.352Z,10.00
2018-11-03T14:28:58.497Z,6.40
2018-11-03T14:30:37.032Z,6.00
2018-11-03T14:32:14.883Z,4.00
2018-11-03T14:33:57.177Z,5.60
2018-11-03T14:35:33.984Z,3.00
2018-11-03T14:37:10.060Z,5.20
2018-11-03T14:38:47.922Z,4.40
2018-11-03T14:40:25.355Z,3.20
2018-11-03T14:42:00.655Z,3.00
2018-11-03T14:43:37.700Z,4.00
2018-11-03T14:45:18.642Z,3.60
2018-11-03T14:46:56.761Z,3.20
2018-11-03T14:48:36.684Z,8.60
2018-11-03T14:50:13.389Z,8.60
2018-11-03T14:51:56.913Z,7.60
2018-11-03T14:53:32.744Z,6.00
2018-11-03T14:55:10.402Z,3.20
2018-11-03T14:56:47.738Z,5.60
2018-11-03T14:58:29.294Z,6.80
2018-11-03T15:00:07.696Z,3.80
2018-11-03T15:01:44.065Z,4.00
2018-11-03T15:03:22.271Z,3.20
2018-11-03T15:04:59.377Z,6.00
2018-11-03T15:06:36.562Z,6.00
2018-11-03T15:08:13.315Z,8.60
2018-11-03T15:09:49.235Z,5.60
2018-11-03T15:11:24.366Z,8.20
2018-11-03T15:13:00.082Z,10.40
2018-11-03T15:14:35.112Z,7.00
2018-11-03T15:16:12.004Z,6.40
2018-11-03T15:17:47.494Z,7.80
2018-11-03T15:19:26.094Z,7.40
2018-11-03T15:21:03.613Z,7.40
2018-11-03T15:22:39.718Z,6.20
2018-11-03T15:24:18.127Z,7.00
2018-11-03T15:26:03.636Z,7.20
2018-11-03T15:27:39.063Z,12.80
2018-11-03T15:29:15.963Z,18.60
2018-11-03T15:30:51.958Z,6.20
2018-11-03T15:32:27.527Z,11.20
2018-11-03T15:34:03.499Z,8.20
2018-11-03T15:35:41.455Z,9.80
2018-11-03T15:37:19.934Z,9.40
2018-11-03T15:38:57.293Z,4.00
2018-11-03T15:40:33.399Z,6.00
2018-11-03T15:42:10.263Z,4.00
2018-11-03T15:43:48.029Z,4.00
2018-11-03T15:45:26.671Z,4.00
2018-11-03T15:47:02.087Z,4.60
2018-11-03T15:48:39.602Z,6.00
2018-11-03T15:50:17.556Z,9.20
2018-11-03T15:52:00.404Z,4.40
2018-11-03T15:53:42.804Z,3.60
2018-11-03T15:55:20.050Z,7.80
2018-11-03T15:56:57.451Z,6.00
2018-11-03T15:58:33.978Z,1.40
2018-11-03T16:00:27.822Z,6.40
2018-11-03T16:02:15.626Z,4.80
2018-11-03T16:04:02.086Z,6.00
2018-11-03T16:05:44.595Z,6.40
2018-11-03T16:07:20.190Z,10.80
2018-11-03T16:09:01.794Z,8.20
2018-11-03T16:10:36.868Z,5.60
2018-11-03T16:12:15.887Z,9.00
2018-11-03T16:13:53.359Z,6.00
2018-11-03T16:15:33.273Z,12.00
2018-11-03T16:17:14.446Z,7.40
2018-11-03T16:18:55.829Z,6.80
2018-11-03T16:20:36.523Z,10.80
2018-11-03T16:22:16.531Z,6.40
2018-11-03T16:23:56.812Z,14.60
2018-11-03T16:25:42.690Z,13.00
2018-11-03T16:29:29.543Z,16.60
2018-11-03T16:31:08.984Z,16.40
2018-11-03T16:32:51.422Z,10.40
2018-11-03T16:34:59.805Z,10.00
2018-11-03T16:36:42.616Z,14.60
2018-11-03T16:38:20.243Z,12.80
2018-11-03T16:40:02.291Z,10.00
2018-11-03T16:41:43.370Z,9.80
2018-11-03T16:43:22.952Z,12.20
2018-11-03T16:45:04.563Z,15.80
2018-11-03T16:46:45.869Z,15.20
2018-11-03T16:48:24.535Z,12.20
2018-11-03T16:50:09.283Z,9.60
2018-11-03T16:51:48.348Z,11.60
2018-11-03T16:53:36.916Z,19.20
2018-11-03T16:55:18.354Z,26.00
2018-11-03T16:57:07.988Z,22.00
2018-11-03T16:58:58.543Z,28.40
2018-11-03T17:00:38.818Z,36.20
2018-11-03T17:02:23.686Z,37.40
2018-11-03T17:04:02.929Z,46.60
2018-11-03T17:07:31.556Z,45.40
2018-11-03T17:09:11.945Z,30.60
2018-11-03T17:10:51.082Z,23.40
2018-11-03T17:12:35.098Z,17.40
2018-11-03T17:14:15.292Z,6.00
2018-11-03T17:15:54.907Z,18.60
2018-11-03T17:17:30.304Z,34.20
2018-11-03T17:19:14.210Z,19.40
2018-11-03T17:20:55.318Z,16.00
2018-11-03T17:22:31.228Z,12.40
2018-11-03T17:24:12.892Z,16.60
2018-11-03T17:25:51.715Z,15.40
2018-11-03T17:27:30.537Z,14.60
2018-11-03T17:29:08.471Z,15.60
2018-11-03T17:30:48.062Z,12.20
2018-11-03T17:32:35.495Z,15.80
2018-11-03T17:34:13.938Z,13.40
2018-11-03T17:35:49.859Z,13.00
2018-11-03T17:37:27.299Z,3.00
2018-11-03T17:39:06.453Z,15.00
2018-11-03T17:40:46.700Z,15.60
2018-11-03T17:42:31.417Z,13.40
2018-11-03T17:44:13.735Z,6.60
2018-11-03T17:46:06.008Z,11.20
2018-11-03T17:47:57.124Z,11.20
2018-11-03T17:49:46.616Z,15.20
2018-11-03T17:51:26.813Z,19.00
2018-11-03T17:54:55.985Z,21.00
2018-11-03T17:56:37.364Z,14.00
2018-11-03T17:58:14.394Z,9.20
2018-11-03T17:59:51.393Z,8.80
2018-11-03T18:01:33.796Z,24.60
2018-11-03T18:03:13.998Z,11.20
2018-11-03T18:04:51.377Z,10.80
2018-11-03T18:06:30.057Z,16.80
2018-11-03T18:10:02.985Z,11.20
2018-11-03T18:13:31.322Z,15.40
2018-11-03T18:15:22.556Z,10.80
2018-11-03T18:17:04.487Z,9.60
2018-11-03T18:18:42.170Z,8.20
2018-11-03T18:20:21.969Z,12.00
2018-11-03T18:22:05.274Z,9.00
2018-11-03T18:23:47.396Z,11.80
2018-11-03T18:25:26.223Z,16.40
2018-11-03T18:27:07.206Z,13.80
2018-11-03T18:28:55.310Z,10.80
2018-11-03T18:30:39.532Z,12.80
2018-11-03T18:32:24.160Z,11.60
2018-11-03T18:34:02.216Z,17.20
2018-11-03T18:35:44.910Z,18.80
2018-11-03T18:37:24.758Z,13.00
2018-11-03T18:41:26.781Z,35.40
2018-11-03T18:43:05.355Z,20.60
2018-11-03T18:44:44.555Z,13.00
2018-11-03T18:46:21.252Z,18.40
2018-11-03T18:47:59.626Z,22.80
2018-11-03T18:49:37.096Z,21.20
2018-11-03T18:51:22.047Z,13.20
2018-11-03T18:52:59.599Z,16.00
2018-11-03T18:54:42.728Z,12.00
2018-11-03T18:56:19.235Z,13.60
2018-11-03T18:58:09.599Z,14.80
2018-11-03T19:00:19.183Z,13.40
2018-11-03T19:02:00.891Z,16.40
2018-11-03T19:03:50.496Z,16.40
2018-11-03T19:05:32.657Z,11.20
2018-11-03T19:07:15.173Z,14.80
2018-11-03T19:09:02.030Z,9.20
2018-11-03T19:10:42.832Z,11.60
2018-11-03T19:12:23.651Z,13.60
2018-11-03T19:14:03.268Z,16.60
2018-11-03T19:15:42.107Z,18.00
2018-11-03T19:17:18.514Z,21.20
2018-11-03T19:19:02.675Z,17.20
2018-11-03T19:20:42.758Z,18.20
2018-11-03T19:22:20.803Z,37.40
2018-11-03T19:24:05.684Z,24.60
2018-11-03T19:25:44.117Z,21.00
2018-11-03T19:27:25.713Z,21.20
2018-11-03T19:29:10.594Z,20.40
2018-11-03T19:30:47.063Z,17.40
2018-11-03T19:32:23.711Z,15.20
2018-11-03T19:34:03.994Z,18.00
2018-11-03T19:35:43.387Z,21.40
2018-11-03T19:37:29.701Z,18.40
2018-11-03T19:39:15.112Z,16.80
2018-11-03T19:40:52.122Z,15.00
2018-11-03T19:42:30.672Z,19.60
2018-11-03T19:44:12.612Z,15.20
2018-11-03T19:45:57.886Z,12.00
2018-11-03T19:47:39.310Z,16.80
2018-11-03T19:49:20.465Z,12.20
2018-11-03T19:51:00.066Z,34.40
2018-11-03T19:52:41.776Z,19.00
2018-11-03T19:54:18.176Z,18.00
2018-11-03T19:55:57.329Z,14.80
2018-11-03T19:57:39.270Z,29.00
2018-11-03T19:59:26.510Z,27.00
2018-11-03T20:01:03.152Z,36.40
2018-11-03T20:02:39.817Z,8.40
2018-11-03T20:04:24.511Z,9.80
2018-11-03T20:06:10.549Z,13.80
2018-11-03T20:07:51.325Z,12.40
2018-11-03T20:09:33.353Z,13.00
2018-11-03T20:11:13.454Z,12.20
2018-11-03T20:12:53.326Z,9.00
2018-11-03T20:14:35.189Z,15.60
2018-11-03T20:16:15.345Z,13.40
2018-11-03T20:18:00.351Z,15.40
2018-11-03T20:19:43.037Z,19.40
2018-11-03T20:21:25.662Z,21.00
2018-11-03T20:23:05.566Z,16.80
2018-11-03T20:25:02.232Z,15.40
2018-11-03T20:26:43.413Z,17.60
2018-11-03T20:28:48.410Z,9.20
2018-11-03T20:30:51.925Z,7.40
2018-11-03T20:32:48.642Z,12.40
2018-11-03T20:36:50.542Z,6.40
2018-11-03T20:38:42.529Z,15.40
2018-11-03T20:40:32.599Z,18.60
2018-11-03T20:42:12.164Z,15.00
2018-11-03T20:44:06.343Z,10.00
2018-11-03T20:45:51.103Z,15.00
2018-11-03T20:51:34.726Z,11.80
2018-11-03T20:53:31.492Z,13.40
2018-11-03T20:55:17.282Z,17.60
2018-11-03T20:57:19.972Z,15.00
2018-11-03T20:59:14.139Z,10.00
2018-11-03T21:01:01.249Z,16.20
2018-11-03T21:02:52.602Z,12.00
2018-11-03T21:06:42.420Z,15.60
2018-11-03T21:08:26.281Z,19.00
2018-11-03T21:10:05.518Z,13.80
2018-11-03T21:11:49.701Z,15.80
2018-11-03T21:17:43.310Z,32.60
2018-11-03T21:19:22.193Z,16.20
2018-11-03T21:21:00.672Z,13.20
2018-11-03T21:22:39.680Z,12.00
2018-11-03T21:24:24.816Z,14.20
2018-11-03T21:26:05.305Z,18.60
2018-11-03T21:28:22.707Z,17.60
2018-11-03T21:30:03.146Z,15.20
2018-11-03T21:31:39.282Z,17.20
2018-11-03T21:33:16.891Z,15.80
2018-11-03T21:34:55.849Z,15.00
2018-11-03T21:36:34.674Z,15.80
2018-11-03T21:38:19.519Z,11.80
2018-11-03T21:40:00.613Z,9.20
2018-11-03T21:41:40.224Z,15.20
2018-11-03T21:45:03.152Z,14.80
2018-11-03T21:46:46.440Z,12.80
2018-11-03T21:48:28.216Z,18.60
2018-11-03T21:50:38.822Z,18.00
2018-11-03T21:52:22.170Z,16.20
2018-11-03T21:53:59.707Z,13.00
2018-11-03T21:55:41.896Z,15.60
2018-11-03T21:57:21.479Z,14.20
2018-11-03T21:58:59.324Z,13.00
2018-11-03T22:00:43.525Z,16.40
2018-11-03T22:02:27.747Z,15.00
2018-11-03T22:04:05.532Z,4.00
2018-11-03T22:05:51.614Z,20.20
2018-11-03T22:09:17.264Z,13.40
2018-11-03T22:10:59.343Z,17.20
2018-11-03T22:13:08.467Z,19.80
2018-11-03T22:19:10.425Z,22.80
2018-11-03T22:21:13.178Z,21.40
2018-11-03T22:25:55.481Z,5.80
2018-11-03T22:29:42.036Z,10.60
2018-11-03T22:35:54.186Z,15.80
2018-11-03T22:37:33.549Z,22.40
2018-11-03T22:39:18.558Z,17.60
2018-11-03T22:41:00.434Z,17.20
2018-11-03T22:42:40.008Z,18.80
2018-11-03T22:44:33.480Z,19.60
2018-11-03T22:46:14.834Z,19.20
2018-11-03T22:47:59.525Z,11.20
2018-11-03T22:49:39.912Z,19.80
2018-11-03T22:51:20.664Z,21.40
2018-11-03T22:53:00.284Z,11.20
2018-11-03T22:54:43.772Z,20.60
2018-11-03T22:56:21.976Z,18.60
2018-11-03T22:58:06.854Z,17.40
2018-11-03T22:59:47.147Z,14.00
2018-11-03T23:01:24.689Z,21.00
2018-11-03T23:03:07.489Z,15.20
2018-11-03T23:04:45.961Z,9.80
2018-11-03T23:06:24.313Z,22.80
2018-11-03T23:08:03.582Z,19.20
2018-11-03T23:09:48.245Z,16.60
2018-11-03T23:11:26.909Z,15.20
2018-11-03T23:13:07.457Z,15.80
2018-11-03T23:14:51.724Z,16.40
2018-11-03T23:16:31.445Z,18.60
2018-11-03T23:18:10.103Z,17.20
2018-11-03T23:19:55.301Z,18.00